Time;durP1;ratioP1;P1;durP2;ratioP2;P2;SDS_P1;SDS_P2;PMS_P1;PMS_P2;Temp;Humidity;BMP_temperature;BMP_pressure;BME280_temperature;BME280_humidity;BME280_pressure;Samples;Min_cycle;Max_cycle;Signal;HPM_P1;HPM_P2
2022/08/02 00:00:36;;;;;;;12.00;8.90;;;;;;;20.57;100.00;98815.72;4388702;32;20064;-73
2022/08/02 00:03:07;;;;;;;15.15;10.20;;;;;;;20.62;100.00;98818.31;4395317;32;20053;-73
2022/08/02 00:05:33;;;;;;;13.32;9.48;;;;;;;20.84;100.00;98822.03;4424004;32;20420;-73
2022/08/02 00:07:59;;;;;;;13.30;9.48;;;;;;;20.90;100.00;98801.59;4436906;32;20049;-73
2022/08/02 00:10:26;;;;;;;16.20;9.10;;;;;;;20.70;100.00;98818.66;4436346;32;20218;-73
2022/08/02 00:12:52;;;;;;;18.45;10.25;;;;;;;20.68;100.00;98819.00;4436331;32;20358;-73
2022/08/02 00:15:19;;;;;;;10.18;9.02;;;;;;;20.74;100.00;98820.44;4436686;32;20472;-73
2022/08/02 00:17:45;;;;;;;10.50;9.40;;;;;;;20.77;100.00;98803.34;4387328;32;20035;-73
2022/08/02 00:20:18;;;;;;;13.52;10.43;;;;;;;20.80;100.00;98812.84;4388669;32;20043;-73
2022/08/02 00:22:44;;;;;;;12.90;9.40;;;;;;;20.80;100.00;98826.53;4388882;32;20045;-74
2022/08/02 00:25:11;;;;;;;13.98;10.43;;;;;;;20.60;100.00;98793.22;4388203;32;20043;-73
2022/08/02 00:27:37;;;;;;;11.90;9.07;;;;;;;20.76;100.00;98806.41;4387471;32;20056;-73
2022/08/02 00:30:04;;;;;;;14.25;10.38;;;;;;;20.90;100.00;98815.28;4386309;32;20051;-74
2022/08/02 00:32:31;;;;;;;12.75;10.15;;;;;;;20.89;100.00;98821.88;4386051;32;21052;-73
2022/08/02 00:34:57;;;;;;;13.35;10.25;;;;;;;20.86;100.00;98817.84;4385028;32;20057;-74
2022/08/02 00:37:23;;;;;;;10.57;9.48;;;;;;;20.93;100.00;98816.53;4384205;32;20035;-73
2022/08/02 00:39:50;;;;;;;14.13;9.52;;;;;;;20.68;100.00;98731.47;4386015;32;20059;-74
2022/08/02 00:42:16;;;;;;;13.75;10.88;;;;;;;20.97;100.00;98777.25;4385143;32;20034;-73
2022/08/02 00:44:42;;;;;;;14.75;9.25;;;;;;;21.12;100.00;98824.41;4371421;32;20036;-73
2022/08/02 00:47:09;;;;;;;11.52;10.07;;;;;;;21.02;100.00;98820.88;4371269;32;20083;-73
2022/08/02 00:49:36;;;;;;;15.90;11.27;;;;;;;20.89;100.00;98802.72;4393221;32;20038;-73
2022/08/02 00:52:03;;;;;;;14.07;10.55;;;;;;;20.86;100.00;98800.62;4401170;32;20035;-74
2022/08/02 00:54:29;;;;;;;12.55;10.30;;;;;;;20.85;100.00;98794.34;4401039;32;20035;-74
2022/08/02 00:56:56;;;;;;;14.20;10.63;;;;;;;20.75;100.00;98788.41;4401325;32;20387;-75
2022/08/02 00:59:22;;;;;;;13.27;9.98;;;;;;;20.96;100.00;98816.69;4399263;32;20076;-74
2022/08/02 01:01:50;;;;;;;14.82;11.43;;;;;;;20.55;100.00;98757.00;4401055;32;20104;-75
2022/08/02 01:04:17;;;;;;;11.85;10.48;;;;;;;20.96;100.00;98827.66;4400808;32;20380;-74
2022/08/02 01:06:43;;;;;;;15.13;10.38;;;;;;;21.15;100.00;98830.03;4400861;32;20053;-75
2022/08/02 01:09:09;;;;;;;15.10;10.27;;;;;;;20.99;100.00;98827.00;4400039;32;20059;-74
2022/08/02 01:11:36;;;;;;;17.50;10.68;;;;;;;21.11;100.00;98839.22;4401002;32;20034;-75
2022/08/02 01:14:07;;;;;;;18.15;10.30;;;;;;;20.93;100.00;98833.75;4400985;32;20072;-74
2022/08/02 01:16:51;;;;;;;12.45;10.80;;;;;;;20.81;100.00;98834.41;4412175;32;20026;-74
2022/08/02 01:19:26;;;;;;;12.05;9.60;;;;;;;20.37;100.00;98808.16;4414327;32;20168;-74
2022/08/02 01:21:56;;;;;;;11.20;9.95;;;;;;;20.51;100.00;98814.28;4416092;32;20392;-75
2022/08/02 01:24:32;;;;;;;17.73;10.50;;;;;;;20.73;100.00;98846.19;4401103;32;20034;-74
2022/08/02 01:27:11;;;;;;;16.40;12.65;;;;;;;20.73;100.00;98856.31;4399799;32;20088;-73
2022/08/02 01:29:42;;;;;;;17.67;12.23;;;;;;;20.65;100.00;98828.63;4400802;32;20047;-74
2022/08/02 01:32:17;;;;;;;20.58;11.48;;;;;;;20.73;100.00;98834.44;4400972;32;20128;-73
2022/08/02 01:34:52;;;;;;;14.95;11.90;;;;;;;20.78;100.00;98858.91;4400197;32;20380;-72
2022/08/02 01:37:24;;;;;;;14.80;11.00;;;;;;;20.65;100.00;98823.16;4405376;32;20101;-73
2022/08/02 01:39:55;;;;;;;17.98;11.23;;;;;;;20.59;100.00;98824.41;4415668;32;20052;-74
2022/08/02 01:42:25;;;;;;;15.63;10.85;;;;;;;20.68;100.00;98849.87;4415553;32;20030;-73
2022/08/02 01:44:53;;;;;;;14.15;11.75;;;;;;;20.86;100.00;98849.87;4414975;32;20056;-74
2022/08/02 01:47:30;;;;;;;24.25;10.90;;;;;;;20.65;100.00;98817.69;4415551;32;20046;-73
2022/08/02 01:50:00;;;;;;;15.15;10.57;;;;;;;20.24;100.00;98750.56;4414969;32;20490;-73
2022/08/02 01:52:32;;;;;;;11.48;9.82;;;;;;;20.78;100.00;98831.53;4414034;32;20060;-73
2022/08/02 01:55:07;;;;;;;16.92;11.10;;;;;;;20.79;100.00;98838.59;4400415;32;20208;-73
2022/08/02 01:57:38;;;;;;;14.73;11.00;;;;;;;20.58;100.00;98800.94;4400463;32;20049;-73
2022/08/02 02:00:07;;;;;;;15.43;10.27;;;;;;;20.74;100.00;98827.81;4382520;32;20030;-74
2022/08/02 02:02:37;;;;;;;12.85;10.43;;;;;;;20.86;100.00;98838.94;4385161;32;20030;-74
2022/08/02 02:05:05;;;;;;;12.82;10.02;;;;;;;20.56;100.00;98789.50;4384440;32;20031;-74
2022/08/02 02:07:33;;;;;;;16.85;12.15;;;;;;;20.80;100.00;98840.22;4384981;32;20047;-73
2022/08/02 02:10:02;;;;;;;13.80;11.57;;;;;;;20.68;100.00;98808.84;4382561;32;20069;-73
2022/08/02 02:12:32;;;;;;;13.90;9.38;;;;;;;20.87;100.00;98832.34;4385159;32;20038;-73
2022/08/02 02:15:00;;;;;;;12.75;10.85;;;;;;;20.67;100.00;98803.69;4384849;32;20035;-73
2022/08/02 02:17:28;;;;;;;14.60;10.85;;;;;;;20.61;100.00;98792.06;4384859;32;20019;-73
2022/08/02 02:19:57;;;;;;;16.80;10.30;;;;;;;21.02;100.00;98834.56;4382245;32;20051;-73
2022/08/02 02:22:23;;;;;;;14.38;10.68;;;;;;;21.05;100.00;98833.91;4384674;32;20054;-73
2022/08/02 02:24:50;;;;;;;13.05;9.98;;;;;;;20.80;100.00;98791.75;4384610;32;20045;-74
2022/08/02 02:27:17;;;;;;;14.20;10.10;;;;;;;21.02;100.00;98826.34;4384780;32;20035;-73
2022/08/02 02:29:48;;;;;;;14.18;10.63;;;;;;;20.81;100.00;98800.78;4384624;32;20354;-73
2022/08/02 02:32:16;;;;;;;17.75;10.68;;;;;;;20.81;100.00;98798.84;4339585;33;20036;-73
2022/08/02 02:34:45;;;;;;;16.87;9.90;;;;;;;20.76;100.00;98841.97;4339945;33;20496;-74
2022/08/02 02:37:17;;;;;;;15.35;10.32;;;;;;;20.50;100.00;98796.25;4345004;32;20055;-74
2022/08/02 02:39:45;;;;;;;13.40;10.23;;;;;;;20.50;100.00;98802.53;4340177;33;20061;-73
2022/08/02 02:42:17;;;;;;;11.90;10.23;;;;;;;20.73;100.00;98834.44;4354674;32;20381;-73
2022/08/02 02:44:45;;;;;;;18.08;10.95;;;;;;;20.70;100.00;98837.81;4354893;32;20032;-73
2022/08/02 02:47:14;;;;;;;20.62;10.52;;;;;;;20.38;100.00;98796.91;4354607;32;20027;-73
2022/08/02 02:49:43;;;;;;;16.00;10.77;;;;;;;20.33;100.00;98773.25;4353159;32;20031;-73
2022/08/02 02:52:13;;;;;;;12.18;10.43;;;;;;;20.80;100.00;98834.75;4354180;32;20066;-74
2022/08/02 02:54:41;;;;;;;15.70;10.82;;;;;;;20.81;100.00;98836.38;4354447;32;20093;-74
2022/08/02 02:57:09;;;;;;;12.43;9.65;;;;;;;20.58;100.00;98803.69;4369191;32;20043;-74
2022/08/02 02:59:42;;;;;;;11.77;9.75;;;;;;;20.60;100.00;98798.69;4339519;33;20048;-74
2022/08/02 03:02:09;;;;;;;14.90;10.05;;;;;;;20.76;100.00;98833.78;4340520;32;20076;-74
2022/08/02 03:04:39;;;;;;;16.67;10.73;;;;;;;20.80;100.00;98832.00;4354539;32;20379;-73
2022/08/02 03:07:05;;;;;;;20.10;10.63;;;;;;;20.62;100.00;98840.19;4354756;32;20039;-72
2022/08/02 03:09:31;;;;;;;24.98;11.25;;;;;;;20.73;100.00;98834.44;4351964;32;20065;-72
2022/08/02 03:11:58;;;;;;;13.27;9.77;;;;;;;20.80;100.00;98823.81;4369163;32;20827;-74
2022/08/02 03:14:25;;;;;;;17.58;10.32;;;;;;;20.81;100.00;98826.22;4369094;32;20411;-73
2022/08/02 03:16:53;;;;;;;19.70;9.77;;;;;;;20.78;100.00;98826.06;4369456;32;20027;-73
2022/08/02 03:19:21;;;;;;;12.80;9.93;;;;;;;20.63;100.00;98798.03;4369025;32;20027;-74
2022/08/02 03:21:49;;;;;;;11.93;9.60;;;;;;;20.52;100.00;98794.03;4367423;32;20035;-73
2022/08/02 03:24:15;;;;;;;11.60;10.10;;;;;;;20.82;100.00;98835.22;4369048;32;20251;-73
2022/08/02 03:26:42;;;;;;;22.77;10.00;;;;;;;20.70;100.00;98805.00;4369171;32;20068;-74
2022/08/02 03:29:08;;;;;;;13.05;9.23;;;;;;;20.60;100.00;98804.16;4382457;32;20077;-73
2022/08/02 03:31:36;;;;;;;13.18;9.05;;;;;;;20.80;100.00;98838.28;4424414;32;20026;-73
2022/08/02 03:34:02;;;;;;;15.75;9.85;;;;;;;20.56;100.00;98814.13;4430262;32;20076;-73
2022/08/02 03:36:31;;;;;;;15.82;9.88;;;;;;;20.66;100.00;98843.94;4431936;32;20089;-74
2022/08/02 03:39:00;;;;;;;18.98;9.73;;;;;;;20.65;100.00;98844.25;4431880;32;20478;-74
2022/08/02 03:41:28;;;;;;;17.35;10.02;;;;;;;20.70;100.00;98840.56;4398293;32;20065;-74
2022/08/02 03:43:55;;;;;;;12.73;10.07;;;;;;;20.57;100.00;98802.06;4367705;32;20138;-74
2022/08/02 03:46:23;;;;;;;15.15;10.23;;;;;;;20.86;100.00;98830.72;4369593;32;20023;-75
2022/08/02 03:48:51;;;;;;;13.82;9.40;;;;;;;20.95;100.00;98815.09;4369234;32;20036;-74
2022/08/02 03:51:19;;;;;;;14.38;10.75;;;;;;;20.74;100.00;98805.94;4369018;32;20039;-74
2022/08/02 03:53:47;;;;;;;10.55;9.32;;;;;;;21.09;100.00;98857.91;4367518;32;20032;-74
2022/08/02 03:56:15;;;;;;;12.20;9.65;;;;;;;21.24;100.00;98854.69;4369110;32;20035;-74
2022/08/02 03:58:41;;;;;;;13.60;10.32;;;;;;;21.08;100.00;98826.19;4369278;32;20402;-74
2022/08/02 04:01:07;;;;;;;13.93;9.65;;;;;;;20.96;100.00;98816.69;4367323;32;20027;-74
2022/08/02 04:03:34;;;;;;;13.57;9.98;;;;;;;21.09;100.00;98857.91;4367929;32;20051;-74
2022/08/02 04:06:00;;;;;;;14.65;10.68;;;;;;;21.10;100.00;98851.31;4339783;33;20036;-74
2022/08/02 04:08:26;;;;;;;17.00;10.65;;;;;;;20.88;100.00;98823.00;4342462;33;20066;-74
2022/08/02 04:13:38;;;;;;;12.57;10.00;;;;;;;20.94;100.00;98829.91;4341544;33;20054;-73
2022/08/02 04:16:25;;;;;;;11.90;9.90;;;;;;;20.94;100.00;98818.97;4370098;32;20410;-73
2022/08/02 04:19:01;;;;;;;13.25;9.35;;;;;;;21.10;100.00;98834.87;4369283;32;20077;-73
2022/08/02 04:21:32;;;;;;;12.80;9.93;;;;;;;21.17;100.00;98837.91;4370596;32;20032;-73
2022/08/02 04:24:01;;;;;;;17.77;9.77;;;;;;;21.45;100.00;98864.94;4356501;32;20165;-74
2022/08/02 04:26:28;;;;;;;18.00;10.13;;;;;;;21.41;100.00;98860.13;4356375;32;20040;-73
2022/08/02 04:28:55;;;;;;;14.70;10.27;;;;;;;21.31;100.00;98833.06;4354886;32;20073;-74
2022/08/02 04:31:22;;;;;;;14.30;9.68;;;;;;;21.32;100.00;98839.38;4369605;32;20378;-73
2022/08/02 04:33:49;;;;;;;13.20;10.07;;;;;;;21.23;100.00;98855.78;4370239;32;20070;-75
2022/08/02 04:36:15;;;;;;;16.12;9.52;;;;;;;21.04;100.00;98828.75;4373210;32;20060;-75
2022/08/02 04:38:42;;;;;;;12.00;9.82;;;;;;;21.18;100.00;98864.19;4382475;32;20051;-73
2022/08/02 04:41:09;;;;;;;11.75;9.65;;;;;;;21.41;100.00;98903.09;4384739;32;20069;-75
2022/08/02 04:43:35;;;;;;;25.30;9.98;;;;;;;21.39;100.00;98895.22;4385877;32;20035;-74
2022/08/02 04:46:02;;;;;;;16.17;10.50;;;;;;;21.31;100.00;98887.81;4386214;32;20049;-75
2022/08/02 04:48:29;;;;;;;15.27;9.95;;;;;;;20.89;100.00;98843.75;4385350;32;20210;-74
2022/08/02 04:50:55;;;;;;;18.55;10.32;;;;;;;21.27;100.00;98897.84;4385113;32;20043;-75
2022/08/02 04:53:22;;;;;;;12.05;9.80;;;;;;;21.29;100.00;98903.00;4381742;32;20085;-75
2022/08/02 04:55:49;;;;;;;18.45;11.52;;;;;;;20.80;100.00;98873.06;4421613;32;20051;-74
2022/08/02 04:58:15;;;;;;;18.40;11.50;;;;;;;21.05;100.00;98899.59;4433582;32;20049;-74
2022/08/02 05:00:42;;;;;;;15.10;11.57;;;;;;;21.25;100.00;98911.03;4434221;32;20046;-74
2022/08/02 05:03:09;;;;;;;14.65;11.00;;;;;;;21.33;100.00;98902.03;4434085;32;20115;-74
2022/08/02 05:05:35;;;;;;;17.62;11.40;;;;;;;21.37;100.00;98907.66;4433610;32;20029;-74
2022/08/02 05:08:02;;;;;;;13.65;11.63;;;;;;;21.56;100.00;98912.78;4434207;32;20375;-75
2022/08/02 05:10:34;;;;;;;21.27;13.20;;;;;;;21.52;100.00;98909.09;4420083;32;20396;-74
2022/08/02 05:13:03;;;;;;;13.23;10.95;;;;;;;21.40;100.00;98885.09;4440135;32;20057;-73
2022/08/02 05:15:29;;;;;;;17.60;12.05;;;;;;;21.64;100.00;98911.97;4448259;32;20059;-74
2022/08/02 05:17:55;;;;;;;12.63;10.23;;;;;;;21.31;100.00;98859.66;4402291;32;20030;-74
2022/08/02 05:20:22;;;;;;;12.13;10.90;;;;;;;21.51;100.00;98885.59;4395994;32;20064;-75
2022/08/02 05:22:48;;;;;;;15.68;11.98;;;;;;;21.53;100.00;98878.63;4399263;32;20078;-75
2022/08/02 05:25:21;;;;;;;16.08;11.57;;;;;;;21.59;100.00;98903.94;4370658;32;20415;-75
2022/08/02 05:27:48;;;;;;;15.43;12.65;;;;;;;21.51;100.00;98891.06;4371128;32;20036;-75
2022/08/02 05:30:14;;;;;;;15.50;12.13;;;;;;;21.71;100.00;98928.69;4370742;32;20031;-74
2022/08/02 05:32:49;;;;;;;16.23;12.32;;;;;;;21.42;100.00;98864.44;4369956;32;20031;-74
2022/08/02 05:35:17;;;;;;;13.05;10.88;;;;;;;21.87;100.00;98939.94;4369366;32;20486;-74
2022/08/02 05:37:44;;;;;;;16.48;11.82;;;;;;;21.71;100.00;98906.78;4369369;32;20053;-74
2022/08/02 05:40:10;;;;;;;18.17;12.07;;;;;;;21.84;100.00;98942.53;4367564;32;20175;-73
2022/08/02 05:42:37;;;;;;;12.75;10.70;;;;;;;21.54;100.00;98917.78;4367748;32;20035;-74
2022/08/02 05:45:04;;;;;;;24.17;11.55;;;;;;;21.73;100.00;98929.19;4357866;32;20043;-73
2022/08/02 05:47:30;;;;;;;16.90;9.45;;;;;;;21.92;100.00;98953.50;4369985;32;20019;-74
2022/08/02 05:49:57;;;;;;;16.33;10.77;;;;;;;21.79;100.00;98939.97;4396690;32;20472;-74
2022/08/02 05:52:25;;;;;;;15.07;9.68;;;;;;;21.60;100.00;98930.19;4399447;32;20061;-74
2022/08/02 05:55:12;;;;;;;15.43;10.77;;;;;;;21.70;100.00;98943.53;4396486;32;20080;-74
2022/08/02 05:57:54;;;;;;;11.30;9.88;;;;;;;22.12;100.00;98976.62;4438207;32;20037;-73
2022/08/02 06:00:22;;;;;;;16.55;11.40;;;;;;;21.84;100.00;98943.31;4399269;32;20027;-74
2022/08/02 06:03:24;;;;;;;23.25;12.82;;;;;;;21.97;100.00;98982.66;4383119;32;20092;-73
2022/08/02 06:06:28;;;;;;;14.48;12.27;;;;;;;22.09;100.00;98987.44;4382146;32;20035;-74
2022/08/02 06:09:00;;;;;;;17.80;11.98;;;;;;;21.94;100.00;98966.88;4339912;33;20382;-74
2022/08/02 06:11:36;;;;;;;15.00;13.32;;;;;;;21.99;100.00;98982.34;4328677;33;20413;-74
2022/08/02 06:14:06;;;;;;;16.33;11.57;;;;;;;21.76;100.00;98953.22;4339652;33;20082;-73
2022/08/02 06:16:33;;;;;;;12.93;10.95;;;;;;;21.67;100.00;98937.91;4348127;32;20032;-74
2022/08/02 06:19:00;;;;;;;12.45;10.95;;;;;;;21.89;100.00;98977.97;4352824;32;20047;-74
2022/08/02 06:21:27;;;;;;;19.90;10.90;;;;;;;21.61;100.00;98961.94;4340508;32;20044;-73
2022/08/02 06:23:54;;;;;;;14.85;12.15;;;;;;;21.75;100.00;98989.16;4339794;33;20062;-74
2022/08/02 06:26:22;;;;;;;18.15;12.27;;;;;;;21.80;100.00;99010.09;4340146;33;20050;-74
2022/08/02 06:28:54;;;;;;;17.05;11.90;;;;;;;21.53;100.00;98965.50;4339031;33;20492;-74
2022/08/02 06:31:21;;;;;;;15.55;11.85;;;;;;;21.61;100.00;99005.75;4345468;32;20073;-74
2022/08/02 06:33:47;;;;;;;17.02;11.63;;;;;;;21.63;100.00;99000.75;4352769;32;20039;-74
2022/08/02 06:36:37;;;;;;;16.40;13.07;;;;;;;21.44;100.00;98942.75;4353686;32;20039;-75
2022/08/02 06:39:29;;;;;;;14.70;12.35;;;;;;;21.97;100.00;99012.00;4353257;32;20098;-75
2022/08/02 06:42:01;;;;;;;17.65;12.10;;;;;;;21.60;100.00;98982.22;4355580;32;20065;-74
2022/08/02 06:44:37;;;;;;;16.62;11.95;;;;;;;21.34;100.00;98946.63;4368153;32;20410;-74
2022/08/02 06:47:10;;;;;;;22.98;11.95;;;;;;;21.83;100.00;99023.16;4369389;32;20036;-75
2022/08/02 06:49:37;;;;;;;19.55;12.45;;;;;;;21.36;100.00;98961.62;4369032;32;20042;-75
2022/08/02 06:52:04;;;;;;;18.12;10.43;;;;;;;21.73;100.00;99030.59;4369311;32;20039;-75
2022/08/02 06:54:30;;;;;;;18.23;10.65;;;;;;;21.55;100.00;98996.09;4368082;32;20061;-75
2022/08/02 06:56:56;;;;;;;13.80;11.02;;;;;;;21.57;100.00;99004.78;4368197;32;20406;-74
2022/08/02 06:59:23;;;;;;;15.02;10.45;;;;;;;21.52;100.00;99002.22;4381311;32;20060;-73
2022/08/02 07:01:49;;;;;;;12.60;10.52;;;;;;;21.65;100.00;98998.53;4384446;32;20086;-74
2022/08/02 07:04:15;;;;;;;13.90;10.48;;;;;;;21.99;100.00;99035.22;4383491;32;20035;-74
2022/08/02 07:06:42;;;;;;;15.48;9.82;;;;;;;21.74;100.00;98999.28;4382870;32;20039;-74
2022/08/02 07:09:08;;;;;;;14.25;9.90;;;;;;;21.70;100.00;98994.78;4385394;32;20066;-74
2022/08/02 07:11:34;;;;;;;13.32;9.50;;;;;;;21.77;100.00;99026.03;4384145;32;20061;-75
2022/08/02 07:14:01;;;;;;;12.77;9.23;;;;;;;21.65;100.00;99001.25;4383956;32;20080;-75
2022/08/02 07:16:27;;;;;;;11.63;9.18;;;;;;;21.96;100.00;99035.88;4383769;32;20027;-74
2022/08/02 07:18:53;;;;;;;17.17;9.75;;;;;;;21.91;100.00;99003.16;4366326;32;20229;-73
2022/08/02 07:21:20;;;;;;;10.88;8.90;;;;;;;21.99;100.00;98998.78;4377888;32;20965;-74
2022/08/02 07:23:46;;;;;;;11.18;8.60;;;;;;;21.89;100.00;99032.78;4383188;32;20092;-73
2022/08/02 07:26:13;;;;;;;14.45;9.35;;;;;;;21.91;100.00;99036.03;4372874;32;20032;-73
2022/08/02 07:28:39;;;;;;;12.00;9.43;;;;;;;22.08;100.00;99040.66;4374077;32;20446;-73
2022/08/02 07:31:05;;;;;;;17.60;9.63;;;;;;;22.09;100.00;99043.09;4373617;32;20047;-74
2022/08/02 07:33:32;;;;;;;17.52;9.25;;;;;;;22.21;100.00;99044.34;4383398;32;20400;-74
2022/08/02 07:35:59;;;;;;;15.43;8.48;;;;;;;21.71;100.00;98993.66;4383373;32;20077;-73
2022/08/02 07:38:32;;;;;;;12.07;7.62;;;;;;;21.97;100.00;99012.00;4384513;32;20053;-73
2022/08/02 07:40:58;;;;;;;13.62;8.90;;;;;;;22.21;100.00;99044.34;4384413;32;20074;-74
2022/08/02 07:43:25;;;;;;;12.60;8.82;;;;;;;22.20;100.00;99048.22;4386717;32;20042;-73
2022/08/02 07:45:51;;;;;;;9.95;8.18;;;;;;;22.21;100.00;99049.81;4385445;32;20192;-74
2022/08/02 07:48:17;;;;;;;12.15;8.10;;;;;;;22.01;100.00;99016.50;4387024;32;20055;-75
2022/08/02 07:50:45;;;;;;;9.98;7.93;;;;;;;22.17;100.00;99016.78;4427787;32;20400;-74
2022/08/02 07:53:11;;;;;;;17.10;8.02;;;;;;;22.49;100.00;99055.75;4437582;32;20041;-75
2022/08/02 07:55:38;;;;;;;14.25;8.10;;;;;;;22.13;100.00;99022.12;4434051;32;20093;-75
2022/08/02 07:58:05;;;;;;;15.35;8.07;;;;;;;22.17;100.00;99026.94;4446272;32;20068;-76
2022/08/02 08:00:31;;;;;;;10.43;7.97;;;;;;;22.10;100.00;99019.22;4433559;32;20081;-74
2022/08/02 08:02:58;;;;;;;10.10;6.97;;;;;;;22.19;100.00;99052.88;4436653;32;20075;-74
2022/08/02 08:05:24;;;;;;;9.60;7.80;;;;;;;22.23;100.00;99064.84;4437417;32;20038;-74
2022/08/02 08:07:50;;;;;;;10.23;6.75;;;;;;;22.40;100.00;99069.50;4433191;32;20047;-74
2022/08/02 08:10:17;;;;;;;11.38;7.37;;;;;;;22.39;100.00;99040.44;4434065;32;20050;-74
2022/08/02 08:12:43;;;;;;;13.50;7.12;;;;;;;22.51;100.00;99064.44;4440585;32;20452;-74
2022/08/02 08:15:09;;;;;;;10.27;7.93;;;;;;;22.51;100.00;99063.66;4441584;32;20095;-74
2022/08/02 08:17:36;;;;;;;11.77;7.32;;;;;;;22.54;100.00;99052.03;4436064;32;20064;-74
2022/08/02 08:20:03;;;;;;;8.48;7.03;;;;;;;22.31;100.00;99044.84;4432946;32;20073;-74
2022/08/02 08:22:30;;;;;;;14.73;7.35;;;;;;;22.18;100.00;99012.09;4421967;32;20430;-73
2022/08/02 08:24:56;;;;;;;12.82;7.53;;;;;;;22.00;100.00;99042.28;4417844;32;20064;-74
2022/08/02 08:27:23;;;;;;;13.32;8.07;;;;;;;22.07;100.00;99045.34;4415542;32;20061;-74
2022/08/02 08:29:49;;;;;;;11.18;8.02;;;;;;;22.31;100.00;99063.22;4385907;32;20082;-74
2022/08/02 08:32:16;;;;;;;15.68;7.68;;;;;;;22.20;100.00;99064.69;4340613;33;20067;-74
2022/08/02 08:34:42;;;;;;;13.35;7.53;;;;;;;22.32;100.00;99089.50;4352359;32;20040;-74
2022/08/02 08:37:08;;;;;;;15.38;7.80;;;;;;;22.31;100.00;99082.44;4352225;32;20036;-73
2022/08/02 08:39:36;;;;;;;15.88;8.30;;;;;;;22.20;100.00;99081.13;4341566;32;20058;-83
2022/08/02 08:42:06;;;;;;;9.63;7.30;;;;;;;22.01;100.00;99057.63;4355738;32;20075;-73
2022/08/02 08:44:34;;;;;;;14.07;7.78;;;;;;;22.34;100.00;99079.03;4356146;32;20019;-74
2022/08/02 08:47:03;;;;;;;22.17;8.80;;;;;;;22.03;100.00;99062.78;4310537;33;20063;-75
2022/08/02 08:49:40;;;;;;;16.12;7.95;;;;;;;22.10;100.00;99088.56;4309147;33;20199;-74
2022/08/02 08:52:10;;;;;;;14.25;8.18;;;;;;;22.02;100.00;99097.62;4310813;33;20037;-73
2022/08/02 08:54:37;;;;;;;10.48;7.90;;;;;;;21.94;100.00;99062.81;4301447;33;20049;-73
2022/08/02 08:57:05;;;;;;;14.05;8.70;;;;;;;21.92;100.00;99071.34;4303109;33;20029;-74
2022/08/02 08:59:32;;;;;;;15.38;8.10;;;;;;;21.95;100.00;99100.03;4306597;33;20075;-73
2022/08/02 09:01:59;;;;;;;17.80;7.00;;;;;;;21.93;100.00;99099.56;4325382;33;20160;-73
2022/08/02 09:04:33;;;;;;;15.45;8.40;;;;;;;21.85;100.00;99075.72;4369966;32;20077;-73
2022/08/02 09:07:00;;;;;;;11.48;6.55;;;;;;;22.13;100.00;99115.34;4338030;33;20119;-75
2022/08/02 09:09:26;;;;;;;16.35;7.87;;;;;;;22.18;100.00;99113.53;4341005;33;20044;-73
2022/08/02 09:11:52;;;;;;;9.50;6.70;;;;;;;22.04;100.00;99116.47;4340714;33;20032;-73
2022/08/02 09:14:28;;;;;;;9.77;5.60;;;;;;;22.16;100.00;99118.56;4325931;33;20091;-73
2022/08/02 09:17:06;;;;;;;9.75;5.47;;;;;;;22.12;100.00;99124.69;4323794;33;20070;-73
2022/08/02 09:19:33;;;;;;;7.60;5.20;;;;;;;22.13;100.00;99118.09;4325476;33;20070;-73
2022/08/02 09:22:06;;;;;;;12.20;5.53;;;;;;;22.03;100.00;99093.72;4325640;33;20065;-73
2022/08/02 09:24:47;;;;;;;9.55;5.12;;;;;;;22.05;100.00;99127.13;4330607;32;20422;-74
2022/08/02 09:27:18;;;;;;;9.30;4.80;;;;;;;22.05;100.00;99124.37;4347072;32;20895;-75
2022/08/02 09:29:50;;;;;;;12.75;4.62;;;;;;;21.97;100.00;99084.09;4370330;32;20079;-75
2022/08/02 09:32:17;;;;;;;10.45;3.97;;;;;;;22.38;100.00;99137.56;4384812;32;20035;-74
2022/08/02 09:34:50;;;;;;;14.40;5.30;;;;;;;22.22;100.00;99100.81;4382400;32;20039;-75
2022/08/02 09:37:28;;;;;;;14.15;5.75;;;;;;;22.55;100.00;99135.94;4372602;32;20046;-74
2022/08/02 09:39:58;;;;;;;18.70;4.22;;;;;;;22.63;100.00;99132.37;4372392;32;20053;-74
2022/08/02 09:42:25;;;;;;;10.07;6.93;;;;;;;22.30;100.00;99048.69;4383499;32;20121;-74
2022/08/02 09:44:56;;;;;;;6.93;5.35;;;;;;;22.82;100.00;99140.22;4380151;32;20047;-74
2022/08/02 09:47:26;;;;;;;7.37;4.43;;;;;;;22.80;100.00;99126.81;4370287;32;20042;-77
2022/08/02 09:49:54;;;;;;;14.18;5.07;;;;;;;22.61;100.00;99102.50;4369977;32;20043;-75
2022/08/02 09:52:25;;;;;;;6.00;4.03;;;;;;;22.88;100.00;99127.94;4401715;32;20042;-76
2022/08/02 09:54:51;;;;;;;7.50;5.30;;;;;;;22.80;100.00;99115.84;4421757;32;20436;-75
2022/08/02 09:57:27;;;;;;;4.68;3.70;;;;;;;23.01;100.00;99131.59;4395278;32;20039;-74
2022/08/02 09:59:57;;;;;;;14.05;3.92;;;;;;;22.96;100.00;99112.53;4394335;32;20030;-78
2022/08/02 10:02:24;;;;;;;4.40;3.35;;;;;;;23.10;100.00;99124.13;4396784;32;20072;-74
2022/08/02 10:04:51;;;;;;;7.47;3.62;;;;;;;22.54;100.00;99117.87;4407336;32;20023;-76
2022/08/02 10:07:19;;;;;;;15.02;4.80;;;;;;;23.09;100.00;99116.22;4379361;32;20101;-76
2022/08/02 10:09:45;;;;;;;10.43;4.18;;;;;;;23.25;100.00;99113.69;4372273;32;20035;-77
2022/08/02 10:12:12;;;;;;;6.78;3.60;;;;;;;23.40;100.00;99140.59;4353319;32;20040;-75
2022/08/02 10:14:40;;;;;;;8.55;3.70;;;;;;;23.33;100.00;99099.13;4358760;32;20087;-73
2022/08/02 10:17:06;;;;;;;16.23;4.55;;;;;;;23.58;100.00;99141.28;4368887;32;20036;-74
2022/08/02 10:19:36;;;;;;;27.37;3.87;;;;;;;23.53;100.00;99127.75;4369811;32;20034;-74
2022/08/02 10:22:05;;;;;;;4.37;3.53;;;;;;;23.44;100.00;99105.84;4328018;33;20070;-80
2022/08/02 10:24:36;;;;;;;9.32;3.55;;;;;;;23.54;100.00;99099.94;4339060;33;20040;-74
2022/08/02 10:27:03;;;;;;;5.87;3.33;;;;;;;23.40;100.00;99089.19;4339001;33;20028;-74
2022/08/02 10:29:41;;;;;;;5.57;3.15;;;;;;;23.90;100.00;99128.81;4324505;33;20191;-75
2022/08/02 10:32:27;;;;;;;6.90;3.00;;;;;;;23.98;100.00;99127.13;4326907;33;20066;-74
2022/08/02 10:35:04;;;;;;;6.03;3.17;;;;;;;24.04;100.00;99128.50;4331651;32;20036;-74
2022/08/02 10:37:35;;;;;;;14.35;3.00;;;;;;;24.02;100.00;99135.50;4336551;33;20028;-78
2022/08/02 10:40:02;;;;;;;3.67;2.97;;;;;;;23.83;100.00;99095.53;4324000;33;20033;-74
2022/08/02 10:42:50;;;;;;;5.15;2.87;;;;;;;23.44;100.00;99097.59;4325859;33;20403;-74
2022/08/02 10:45:20;;;;;;;6.97;2.78;;;;;;;24.01;100.00;99139.37;4358150;32;20459;-78
2022/08/02 10:48:10;;;;;;;10.30;3.10;;;;;;;23.38;100.00;99063.22;4367451;32;20035;-75
2022/08/02 10:50:46;;;;;;;4.75;2.75;;;;;;;24.27;100.00;99131.69;4373674;32;20063;-74
2022/08/02 10:53:31;;;;;;;5.40;2.30;;;;;;;24.29;100.00;99134.91;4396415;32;20046;-75
2022/08/02 10:56:03;;;;;;;4.22;2.90;;;;;;;24.47;100.00;99123.72;4397486;32;20404;-74
2022/08/02 10:58:32;;;;;;;3.65;3.17;;;;;;;24.06;100.00;99103.41;4382362;32;20116;-75
2022/08/02 11:01:28;;;;;;;8.25;3.22;;;;;;;23.92;100.00;99103.72;4348357;33;20397;-76
2022/08/02 11:03:58;;;;;;;7.72;2.80;;;;;;;23.99;100.00;99133.41;4353267;32;20049;-77
2022/08/02 11:06:25;;;;;;;4.05;3.00;;;;;;;24.12;100.00;99129.56;4350512;32;20070;-78
2022/08/02 11:09:31;;;;;;;6.32;2.95;;;;;;;24.21;100.00;99141.28;4350574;32;20035;-74
2022/08/02 11:12:05;;;;;;;4.55;2.60;;;;;;;24.28;100.00;99138.81;4339649;32;20062;-77
2022/08/02 11:14:34;;;;;;;6.12;2.55;;;;;;;24.46;100.00;99133.13;4338536;33;20028;-74
2022/08/02 11:17:04;;;;;;;3.65;2.65;;;;;;;23.91;100.00;99034.16;4337517;33;20044;-75
2022/08/02 11:19:32;;;;;;;6.30;3.33;;;;;;;24.53;100.00;99127.88;4323102;33;20044;-75
2022/08/02 11:22:03;;;;;;;5.15;2.83;;;;;;;24.44;100.00;99097.69;4320268;33;20079;-75
2022/08/02 11:24:31;;;;;;;4.87;3.03;;;;;;;24.83;100.00;99133.22;4323452;33;20040;-75
2022/08/02 11:27:01;;;;;;;6.95;3.00;;;;;;;24.53;100.00;99067.31;4328417;33;20129;-75